createdAt,value
2022-08-16T00:00:04.334Z,24.15
2022-08-16T00:02:29.469Z,24.92
2022-08-16T00:05:00.252Z,25.10
2022-08-16T00:07:30.543Z,27.20
2022-08-16T00:10:03.906Z,27.30
2022-08-16T00:12:33.170Z,26.60
2022-08-16T00:15:11.685Z,26.40
2022-08-16T00:17:56.361Z,28.70
2022-08-16T00:20:14.921Z,31.62
2022-08-16T00:22:45.251Z,22.80
2022-08-16T00:25:17.503Z,24.77
2022-08-16T00:27:47.229Z,24.15
2022-08-16T00:30:19.798Z,22.62
2022-08-16T00:32:52.813Z,23.40
2022-08-16T00:35:26.994Z,23.45
2022-08-16T00:37:59.548Z,23.30
2022-08-16T00:40:34.399Z,22.62
2022-08-16T00:43:12.011Z,25.50
2022-08-16T00:46:00.273Z,27.82
2022-08-16T00:48:31.140Z,25.12
2022-08-16T00:50:58.737Z,23.70
2022-08-16T00:53:31.111Z,22.67
2022-08-16T00:56:05.256Z,23.40
2022-08-16T00:58:39.352Z,23.15
2022-08-16T01:01:16.302Z,22.25
2022-08-16T01:03:54.435Z,27.05
2022-08-16T01:06:32.626Z,25.15
2022-08-16T01:09:00.073Z,24.98
2022-08-16T01:11:32.843Z,23.10
2022-08-16T01:14:12.316Z,24.52
2022-08-16T01:16:44.205Z,24.10
2022-08-16T01:19:40.867Z,25.23
2022-08-16T01:22:46.863Z,24.37
2022-08-16T01:25:17.097Z,23.55
2022-08-16T01:27:49.365Z,27.27
2022-08-16T01:30:28.761Z,25.92
2022-08-16T01:33:14.511Z,26.30
2022-08-16T01:35:39.185Z,24.92
2022-08-16T01:38:29.588Z,26.02
2022-08-16T01:41:13.285Z,25.70
2022-08-16T01:43:46.113Z,23.80
2022-08-16T01:46:38.256Z,25.10
2022-08-16T01:49:02.395Z,27.32
2022-08-16T01:51:39.305Z,25.65
2022-08-16T01:54:16.780Z,28.02
2022-08-16T01:56:54.187Z,23.40
2022-08-16T01:59:29.227Z,29.75
2022-08-16T02:02:02.837Z,31.60
2022-08-16T02:04:48.835Z,23.87
2022-08-16T02:07:14.806Z,24.57
2022-08-16T02:09:57.497Z,24.07
2022-08-16T02:12:49.512Z,27.70
2022-08-16T02:15:01.039Z,26.97
2022-08-16T02:17:30.542Z,27.10
2022-08-16T02:20:03.259Z,31.97
2022-08-16T02:22:46.692Z,31.05
2022-08-16T02:25:14.638Z,28.55
2022-08-16T02:27:50.653Z,31.55
2022-08-16T02:30:37.403Z,29.92
2022-08-16T02:32:52.926Z,33.80
2022-08-16T02:35:25.695Z,34.35
2022-08-16T02:37:56.157Z,32.83
2022-08-16T02:40:29.172Z,31.30
2022-08-16T02:45:33.440Z,36.90
2022-08-16T02:48:29.024Z,36.30
2022-08-16T02:50:53.901Z,36.58
2022-08-16T02:53:05.992Z,34.67
2022-08-16T02:55:41.217Z,31.93
2022-08-16T02:58:11.611Z,36.95
2022-08-16T03:00:45.633Z,36.20
2022-08-16T03:03:17.542Z,32.10
2022-08-16T03:05:49.993Z,34.58
2022-08-16T03:08:50.254Z,34.25
2022-08-16T03:10:51.680Z,37.53
2022-08-16T03:13:23.830Z,35.38
2022-08-16T03:15:55.800Z,37.42
2022-08-16T03:18:34.457Z,37.20
2022-08-16T03:20:59.727Z,39.90
2022-08-16T03:23:35.797Z,35.25
2022-08-16T03:26:04.142Z,35.70
2022-08-16T03:28:33.380Z,35.58
2022-08-16T03:31:06.152Z,37.93
2022-08-16T03:33:35.980Z,37.93
2022-08-16T03:36:30.959Z,35.52
2022-08-16T03:38:39.944Z,34.98
2022-08-16T03:41:24.439Z,37.93
2022-08-16T03:43:51.224Z,32.88
2022-08-16T03:46:47.729Z,35.10
2022-08-16T03:48:51.565Z,34.50
2022-08-16T03:51:25.384Z,34.98
2022-08-16T03:54:01.292Z,35.75
2022-08-16T03:56:30.476Z,39.73
2022-08-16T04:01:46.353Z,36.73
2022-08-16T04:04:25.061Z,39.40
2022-08-16T04:06:51.308Z,37.15
2022-08-16T04:09:23.200Z,38.92
2022-08-16T04:11:57.533Z,40.33
2022-08-16T04:14:33.394Z,43.20
2022-08-16T04:16:58.103Z,43.80
2022-08-16T04:22:08.548Z,45.23
2022-08-16T04:24:39.537Z,45.55
2022-08-16T04:27:12.583Z,47.33
2022-08-16T04:29:46.484Z,45.85
2022-08-16T04:32:16.863Z,48.15
2022-08-16T04:34:51.829Z,44.85
2022-08-16T04:37:23.100Z,46.83
2022-08-16T04:39:57.660Z,47.25
2022-08-16T04:42:29.708Z,52.78
2022-08-16T04:45:01.884Z,49.65
2022-08-16T04:47:35.614Z,51.48
2022-08-16T04:50:08.339Z,45.43
2022-08-16T04:52:39.177Z,47.30
2022-08-16T04:55:13.647Z,49.73
2022-08-16T04:57:52.618Z,49.03
2022-08-16T05:02:55.853Z,46.63
2022-08-16T05:16:19.750Z,47.73
2022-08-16T05:18:47.976Z,48.58
2022-08-16T05:21:17.585Z,52.03
2022-08-16T05:23:55.398Z,48.17
2022-08-16T05:28:55.501Z,49.38
2022-08-16T05:31:22.281Z,49.03
2022-08-16T05:33:53.517Z,49.45
2022-08-16T05:38:56.136Z,47.98
2022-08-16T05:41:28.625Z,49.60
2022-08-16T05:44:05.325Z,43.90
2022-08-16T05:46:34.571Z,41.63
2022-08-16T05:49:09.410Z,46.35
2022-08-16T05:51:39.860Z,40.40
2022-08-16T05:54:11.650Z,44.93
2022-08-16T05:56:42.963Z,39.53
2022-08-16T05:59:13.949Z,43.65
2022-08-16T06:01:49.210Z,44.48
2022-08-16T06:04:35.639Z,36.15
2022-08-16T06:06:56.420Z,39.13
2022-08-16T06:09:25.326Z,38.67
2022-08-16T06:11:54.666Z,40.73
2022-08-16T06:14:23.947Z,43.02
2022-08-16T06:16:55.689Z,48.77
2022-08-16T06:19:27.053Z,41.45
2022-08-16T06:22:03.020Z,43.17
2022-08-16T06:24:53.390Z,46.88
2022-08-16T06:27:04.882Z,46.02
2022-08-16T06:29:34.722Z,46.75
2022-08-16T06:32:05.381Z,47.58
2022-08-16T06:34:56.858Z,48.48
2022-08-16T06:37:08.827Z,52.10
2022-08-16T06:39:49.552Z,47.25
2022-08-16T06:42:13.347Z,49.42
2022-08-16T06:44:46.534Z,48.02
2022-08-16T06:47:53.746Z,46.88
2022-08-16T06:49:58.447Z,40.30
2022-08-16T06:52:59.786Z,44.45
2022-08-16T06:55:02.173Z,41.30
2022-08-16T06:57:31.614Z,42.58
2022-08-16T07:00:02.963Z,45.70
2022-08-16T07:02:35.811Z,43.68
2022-08-16T07:05:14.974Z,42.98
2022-08-16T07:07:40.059Z,43.48
2022-08-16T07:10:11.606Z,49.18
2022-08-16T07:12:47.485Z,45.10
2022-08-16T07:15:18.682Z,46.50
2022-08-16T07:17:46.373Z,42.30
2022-08-16T07:20:35.386Z,43.10
2022-08-16T07:22:59.152Z,46.08
2022-08-16T07:25:32.795Z,46.68
2022-08-16T07:28:02.844Z,47.05
2022-08-16T07:30:45.196Z,50.45
2022-08-16T07:33:07.436Z,42.85
2022-08-16T07:35:44.311Z,46.33
2022-08-16T07:38:09.997Z,46.70
2022-08-16T07:40:59.639Z,43.98
2022-08-16T07:43:14.803Z,43.10
2022-08-16T07:45:48.264Z,49.63
2022-08-16T07:48:15.372Z,44.30
2022-08-16T07:50:56.214Z,45.98
2022-08-16T07:53:18.241Z,45.37
2022-08-16T07:55:48.359Z,49.53
2022-08-16T07:58:34.801Z,44.93
2022-08-16T08:00:51.922Z,49.60
2022-08-16T08:03:22.415Z,44.55
2022-08-16T08:05:54.838Z,47.90
2022-08-16T08:08:50.511Z,42.65
2022-08-16T08:10:55.413Z,44.67
2022-08-16T08:13:31.015Z,43.50
2022-08-16T08:16:00.065Z,39.38
2022-08-16T08:18:31.055Z,41.68
2022-08-16T08:21:02.486Z,44.18
2022-08-16T08:23:35.167Z,39.73
2022-08-16T08:26:17.748Z,43.48
2022-08-16T08:28:40.439Z,41.08
2022-08-16T08:31:10.332Z,40.40
2022-08-16T08:33:46.742Z,37.30
2022-08-16T08:36:21.830Z,36.48
2022-08-16T08:38:46.261Z,36.05
2022-08-16T08:41:18.852Z,38.92
2022-08-16T08:43:50.761Z,42.88
2022-08-16T08:46:23.649Z,38.92
2022-08-16T08:48:58.354Z,37.30
2022-08-16T08:51:35.533Z,38.98
2022-08-16T08:54:01.069Z,37.03
2022-08-16T08:56:35.151Z,34.53
2022-08-16T08:59:19.681Z,34.23
2022-08-16T09:01:57.760Z,35.17
2022-08-16T09:06:48.568Z,41.37
2022-08-16T09:09:19.403Z,37.55
2022-08-16T09:12:00.259Z,36.77
2022-08-16T09:14:24.019Z,36.08
2022-08-16T09:17:03.675Z,35.98
2022-08-16T09:19:31.966Z,37.42
2022-08-16T09:21:58.481Z,34.27
2022-08-16T09:24:46.396Z,30.77
2022-08-16T09:26:59.416Z,35.35
2022-08-16T09:29:44.764Z,32.10
2022-08-16T09:32:00.401Z,28.35
2022-08-16T09:34:29.758Z,33.75
2022-08-16T09:37:00.242Z,31.17
2022-08-16T09:39:41.596Z,29.12
2022-08-16T09:42:00.842Z,29.07
2022-08-16T09:45:11.321Z,28.02
2022-08-16T09:47:02.436Z,26.55
2022-08-16T09:49:37.108Z,24.30
2022-08-16T09:52:04.926Z,26.75
2022-08-16T09:54:35.497Z,22.85
2022-08-16T09:57:04.914Z,21.82
2022-08-16T09:59:38.493Z,23.87
2022-08-16T10:02:26.290Z,26.00
2022-08-16T10:04:53.088Z,23.62
2022-08-16T10:07:15.068Z,20.40
2022-08-16T10:09:53.818Z,19.17
2022-08-16T10:12:28.242Z,16.48
2022-08-16T10:14:57.871Z,17.20
2022-08-16T10:17:27.963Z,20.55
2022-08-16T10:19:57.813Z,20.77
2022-08-16T10:22:27.408Z,18.02
2022-08-16T10:24:59.987Z,23.12
2022-08-16T10:27:46.959Z,20.17
2022-08-16T10:30:07.030Z,18.32
2022-08-16T10:32:32.160Z,17.52
2022-08-16T10:35:03.797Z,17.57
2022-08-16T10:37:36.239Z,18.65
2022-08-16T10:40:28.692Z,22.02
2022-08-16T10:42:37.909Z,16.45
2022-08-16T10:45:09.917Z,16.87
2022-08-16T10:47:39.558Z,21.52
2022-08-16T10:50:19.850Z,17.60
2022-08-16T10:52:41.294Z,19.23
2022-08-16T10:57:43.559Z,24.23
2022-08-16T11:00:21.256Z,22.35
2022-08-16T11:03:00.184Z,20.35
2022-08-16T11:05:19.098Z,17.23
2022-08-16T11:07:51.920Z,17.35
2022-08-16T11:12:56.461Z,16.70
2022-08-16T11:15:26.904Z,18.23
2022-08-16T11:20:49.307Z,18.10
2022-08-16T11:22:59.764Z,16.50
2022-08-16T11:28:04.053Z,19.12
2022-08-16T11:30:38.818Z,16.43
2022-08-16T11:33:05.536Z,14.63
2022-08-16T11:35:44.389Z,15.85
2022-08-16T11:38:47.285Z,15.70
2022-08-16T11:40:53.142Z,16.77
2022-08-16T11:43:26.601Z,16.37
2022-08-16T11:45:57.550Z,18.07
2022-08-16T11:48:30.862Z,19.20
2022-08-16T11:51:00.708Z,22.32
2022-08-16T11:53:35.890Z,17.07
2022-08-16T11:56:06.182Z,21.80
2022-08-16T11:58:36.808Z,18.48
2022-08-16T12:01:10.652Z,24.27
2022-08-16T12:03:41.923Z,21.42
2022-08-16T12:06:30.354Z,25.10
2022-08-16T12:08:46.981Z,23.40
2022-08-16T12:11:16.645Z,20.77
2022-08-16T12:13:46.761Z,18.35
2022-08-16T12:16:20.472Z,21.13
2022-08-16T12:18:50.424Z,20.90
2022-08-16T12:21:19.803Z,15.95
2022-08-16T12:23:49.158Z,18.80
2022-08-16T12:26:19.659Z,18.35
2022-08-16T12:28:54.692Z,17.12
2022-08-16T12:31:23.024Z,20.70
2022-08-16T12:33:54.372Z,15.53
2022-08-16T12:36:29.931Z,16.40
2022-08-16T12:38:58.785Z,15.85
2022-08-16T12:41:29.001Z,15.25
2022-08-16T12:44:01.288Z,13.62
2022-08-16T12:46:31.412Z,12.95
2022-08-16T12:49:03.366Z,14.18
2022-08-16T12:51:59.864Z,13.55
2022-08-16T12:54:09.741Z,17.25
2022-08-16T12:56:40.270Z,16.55
2022-08-16T12:59:19.858Z,12.35
2022-08-16T13:01:47.896Z,11.10
2022-08-16T13:04:20.650Z,10.10
2022-08-16T13:06:52.339Z,10.67
2022-08-16T13:09:26.867Z,10.40
2022-08-16T13:12:09.674Z,10.05
2022-08-16T13:14:41.750Z,7.30
2022-08-16T13:17:19.140Z,7.25
2022-08-16T13:22:19.701Z,7.00
2022-08-16T13:24:48.158Z,5.30
2022-08-16T13:27:19.226Z,9.15
2022-08-16T13:29:50.266Z,8.23
2022-08-16T13:32:40.135Z,6.22
2022-08-16T13:34:52.295Z,5.33
2022-08-16T13:37:21.603Z,5.53
2022-08-16T13:39:51.330Z,6.22
2022-08-16T13:42:21.035Z,6.65
2022-08-16T13:44:58.094Z,5.35
2022-08-16T13:47:21.511Z,9.68
2022-08-16T13:49:52.763Z,5.67
2022-08-16T13:52:25.615Z,5.50
2022-08-16T13:54:57.213Z,5.83
2022-08-16T13:57:53.175Z,6.75
2022-08-16T13:59:57.855Z,7.50
2022-08-16T14:02:27.493Z,8.85
2022-08-16T14:05:01.915Z,8.50
2022-08-16T14:07:28.116Z,8.65
2022-08-16T14:09:59.601Z,8.78
2022-08-16T14:12:31.366Z,9.58
2022-08-16T14:15:02.778Z,9.15
2022-08-16T14:18:14.879Z,10.78
2022-08-16T14:20:03.383Z,9.68
2022-08-16T14:22:39.945Z,10.80
2022-08-16T14:25:11.681Z,10.32
2022-08-16T14:27:44.356Z,12.15
2022-08-16T14:30:16.284Z,9.35
2022-08-16T14:32:51.181Z,10.05
2022-08-16T14:37:47.569Z,10.90
2022-08-16T14:40:19.389Z,13.22
2022-08-16T14:42:49.395Z,10.88
2022-08-16T14:45:22.411Z,12.90
2022-08-16T14:47:53.500Z,8.33
2022-08-16T14:50:25.976Z,10.20
2022-08-16T14:52:59.538Z,12.10
2022-08-16T14:55:31.477Z,8.93
2022-08-16T14:58:01.628Z,10.38
2022-08-16T15:00:33.139Z,8.13
2022-08-16T15:03:05.742Z,7.92
2022-08-16T15:08:05.410Z,7.85
2022-08-16T15:10:35.005Z,11.08
2022-08-16T15:13:09.927Z,11.10
2022-08-16T15:15:40.627Z,8.88
2022-08-16T15:18:11.989Z,9.80
2022-08-16T15:20:43.338Z,12.68
2022-08-16T15:23:12.852Z,9.23
2022-08-16T15:26:02.923Z,11.80
2022-08-16T15:28:30.993Z,11.63
2022-08-16T15:30:59.661Z,12.20
2022-08-16T15:33:24.007Z,8.73
2022-08-16T15:35:58.312Z,11.70
2022-08-16T15:40:59.059Z,12.40
2022-08-16T15:43:38.904Z,12.95
2022-08-16T15:46:34.538Z,13.08
2022-08-16T15:48:49.721Z,36.68
2022-08-16T15:51:20.889Z,8.47
2022-08-16T15:54:12.136Z,10.25
2022-08-16T15:56:27.773Z,11.05
2022-08-16T15:58:56.668Z,8.13
2022-08-16T16:01:25.954Z,10.28
2022-08-16T16:03:56.005Z,10.98
2022-08-16T16:06:28.804Z,9.43
2022-08-16T16:08:58.141Z,9.63
2022-08-16T16:11:27.903Z,7.92
2022-08-16T16:13:59.087Z,8.45
2022-08-16T16:16:28.700Z,10.45
2022-08-16T16:18:58.052Z,7.70
2022-08-16T16:21:27.522Z,9.40
2022-08-16T16:23:57.724Z,9.50
2022-08-16T16:26:28.897Z,9.30
2022-08-16T16:29:07.867Z,7.62
2022-08-16T16:31:29.472Z,12.93
2022-08-16T16:34:01.071Z,7.67
2022-08-16T16:36:33.298Z,10.90
2022-08-16T16:39:06.006Z,9.28
2022-08-16T16:41:38.624Z,9.80
2022-08-16T16:44:10.127Z,10.20
2022-08-16T16:46:43.213Z,8.53
2022-08-16T16:49:13.853Z,10.35
2022-08-16T16:51:49.720Z,9.15
2022-08-16T16:54:27.712Z,8.05
2022-08-16T16:56:50.331Z,9.85
2022-08-16T16:59:20.240Z,9.68
2022-08-16T17:01:57.813Z,9.18
2022-08-16T17:04:32.044Z,9.90
2022-08-16T17:06:57.303Z,10.75
2022-08-16T17:09:26.542Z,11.40
2022-08-16T17:11:56.088Z,10.03
2022-08-16T17:14:32.776Z,10.05
2022-08-16T17:16:57.283Z,12.07
2022-08-16T17:19:31.731Z,9.30
2022-08-16T17:21:58.919Z,10.68
2022-08-16T17:24:32.002Z,11.28
2022-08-16T17:27:01.249Z,11.08
2022-08-16T17:29:32.815Z,13.13
2022-08-16T17:32:44.621Z,10.48
2022-08-16T17:34:33.529Z,11.12
2022-08-16T17:37:08.200Z,11.08
2022-08-16T17:39:59.577Z,11.05
2022-08-16T17:42:16.002Z,10.55
2022-08-16T17:44:45.911Z,10.35
2022-08-16T17:47:15.191Z,13.58
2022-08-16T17:49:44.468Z,11.95
2022-08-16T17:52:14.696Z,10.10
2022-08-16T17:54:44.226Z,15.38
2022-08-16T17:57:13.608Z,13.40
2022-08-16T17:59:44.487Z,13.22
2022-08-16T18:02:42.302Z,10.63
2022-08-16T18:04:49.561Z,18.73
2022-08-16T18:07:16.193Z,18.15
2022-08-16T18:09:45.503Z,20.97
2022-08-16T18:12:41.586Z,25.32
2022-08-16T18:14:52.492Z,23.27
2022-08-16T18:17:21.197Z,25.70
2022-08-16T18:19:50.537Z,24.18
2022-08-16T18:22:30.255Z,23.10
2022-08-16T18:24:56.688Z,25.75
2022-08-16T18:27:27.423Z,26.55
2022-08-16T18:29:56.978Z,26.77
2022-08-16T18:32:27.623Z,26.15
2022-08-16T18:34:56.917Z,27.95
2022-08-16T18:37:26.188Z,27.25
2022-08-16T18:39:58.067Z,28.90
2022-08-16T18:42:26.465Z,30.02
2022-08-16T18:44:55.975Z,30.97
2022-08-16T18:47:25.198Z,29.85
2022-08-16T18:49:54.457Z,32.90
2022-08-16T18:52:25.945Z,35.13
2022-08-16T18:55:02.733Z,34.47
2022-08-16T18:57:27.008Z,37.48
2022-08-16T18:59:56.332Z,35.68
2022-08-16T19:02:56.792Z,31.87
2022-08-16T19:04:58.693Z,37.88
2022-08-16T19:07:30.419Z,39.45
2022-08-16T19:10:00.012Z,37.70
2022-08-16T19:12:38.273Z,40.15
2022-08-16T19:15:01.249Z,42.93
2022-08-16T19:17:30.768Z,46.33
2022-08-16T19:20:00.103Z,40.55
2022-08-16T19:22:59.448Z,41.53
2022-08-16T19:25:04.418Z,39.70
2022-08-16T19:27:35.965Z,42.80
2022-08-16T19:30:07.543Z,43.87
2022-08-16T19:32:39.243Z,74.65
2022-08-16T19:35:10.237Z,44.77
2022-08-16T19:37:46.618Z,44.63
2022-08-16T19:40:36.067Z,48.00
2022-08-16T19:42:45.501Z,47.98
2022-08-16T19:45:18.866Z,45.90
2022-08-16T19:47:50.701Z,49.83
2022-08-16T19:50:36.084Z,48.33
2022-08-16T19:52:58.123Z,52.40
2022-08-16T19:55:28.465Z,51.83
2022-08-16T19:57:58.724Z,54.25
2022-08-16T20:00:35.646Z,52.10
2022-08-16T20:02:59.215Z,51.37
2022-08-16T20:05:35.517Z,54.05
2022-08-16T20:08:06.333Z,56.25
2022-08-16T20:10:36.007Z,52.55
2022-08-16T20:13:08.618Z,54.03
2022-08-16T20:15:40.660Z,54.65
2022-08-16T20:18:12.465Z,56.65
2022-08-16T20:20:40.436Z,59.50
2022-08-16T20:23:24.987Z,57.10
2022-08-16T20:25:53.763Z,60.97
2022-08-16T20:28:39.466Z,65.10
2022-08-16T20:30:54.308Z,62.20
2022-08-16T20:33:23.725Z,57.60
2022-08-16T20:35:53.049Z,63.17
2022-08-16T20:38:24.200Z,56.50
2022-08-16T20:40:53.546Z,62.40
2022-08-16T20:43:22.853Z,59.73
2022-08-16T20:45:52.206Z,67.03
2022-08-16T20:48:21.500Z,62.67
2022-08-16T20:50:50.877Z,57.85
2022-08-16T20:53:20.177Z,59.65
2022-08-16T20:55:49.577Z,63.33
2022-08-16T20:58:19.115Z,66.02
2022-08-16T21:00:48.664Z,60.33
2022-08-16T21:03:17.937Z,57.65
2022-08-16T21:05:47.807Z,64.12
2022-08-16T21:08:50.385Z,64.75
2022-08-16T21:10:48.618Z,63.02
2022-08-16T21:13:17.938Z,62.45
2022-08-16T21:15:47.325Z,65.95
2022-08-16T21:18:16.613Z,64.32
2022-08-16T21:20:45.996Z,64.97
2022-08-16T21:23:15.564Z,61.28
2022-08-16T21:25:57.731Z,59.15
2022-08-16T21:28:41.910Z,57.33
2022-08-16T21:30:48.757Z,61.43
2022-08-16T21:33:20.004Z,64.22
2022-08-16T21:35:50.108Z,62.98
2022-08-16T21:38:28.579Z,62.38
2022-08-16T21:40:51.795Z,61.65
2022-08-16T21:43:24.156Z,61.98
2022-08-16T21:45:55.977Z,62.30
2022-08-16T21:48:33.517Z,62.88
2022-08-16T21:50:58.077Z,60.45
2022-08-16T21:53:29.512Z,58.52
2022-08-16T21:56:01.100Z,57.67
2022-08-16T21:58:31.166Z,53.45
2022-08-16T22:01:01.090Z,49.48
2022-08-16T22:03:33.031Z,53.52
2022-08-16T22:06:12.723Z,53.87
2022-08-16T22:08:34.233Z,57.62
2022-08-16T22:11:09.099Z,55.33
2022-08-16T22:13:36.874Z,57.20
2022-08-16T22:16:10.365Z,59.10
2022-08-16T22:18:39.712Z,57.88
2022-08-16T22:21:09.004Z,56.00
2022-08-16T22:23:38.552Z,57.60
2022-08-16T22:26:07.910Z,62.98
2022-08-16T22:28:37.272Z,61.37
2022-08-16T22:31:06.837Z,60.67
2022-08-16T22:33:36.181Z,62.73
2022-08-16T22:36:06.585Z,62.25
2022-08-16T22:38:54.701Z,64.58
2022-08-16T22:41:07.217Z,63.00
2022-08-16T22:43:36.597Z,65.20
2022-08-16T22:46:06.201Z,62.78
2022-08-16T22:48:39.372Z,68.35
2022-08-16T22:51:06.580Z,67.47
2022-08-16T22:53:37.473Z,64.50
2022-08-16T22:56:07.367Z,71.00
2022-08-16T22:58:37.402Z,65.45
2022-08-16T23:01:09.361Z,67.78
2022-08-16T23:03:41.132Z,69.70
2022-08-16T23:06:12.187Z,67.27
2022-08-16T23:08:43.029Z,69.72
2022-08-16T23:11:22.835Z,68.17
2022-08-16T23:13:54.716Z,66.60
2022-08-16T23:16:32.831Z,69.40
2022-08-16T23:19:07.727Z,68.17
2022-08-16T23:21:39.425Z,69.42
2022-08-16T23:24:09.661Z,72.90
2022-08-16T23:26:46.919Z,68.40
2022-08-16T23:29:21.944Z,70.87
2022-08-16T23:31:45.324Z,69.15
2022-08-16T23:34:14.605Z,73.00
2022-08-16T23:36:47.043Z,70.22
2022-08-16T23:39:17.284Z,70.62
2022-08-16T23:41:49.239Z,70.20
2022-08-16T23:44:55.517Z,76.28
2022-08-16T23:46:53.983Z,71.40
2022-08-16T23:49:59.137Z,68.12
2022-08-16T23:51:54.626Z,74.27
2022-08-16T23:54:24.233Z,80.07
2022-08-16T23:56:53.943Z,75.17
2022-08-16T23:59:26.250Z,79.37
